createdAt,value
2023-03-13T00:01:00.044Z,3.08
2023-03-13T00:03:28.565Z,2.60
2023-03-13T00:05:57.168Z,3.15
2023-03-13T00:08:25.620Z,3.20
2023-03-13T00:10:52.620Z,2.47
2023-03-13T00:13:19.402Z,2.90
2023-03-13T00:15:46.278Z,3.55
2023-03-13T00:18:13.083Z,2.78
2023-03-13T00:20:39.875Z,2.83
2023-03-13T00:23:06.644Z,2.95
2023-03-13T00:25:33.674Z,3.13
2023-03-13T00:28:00.462Z,3.53
2023-03-13T00:30:27.288Z,3.03
2023-03-13T00:32:54.137Z,3.20
2023-03-13T00:35:20.965Z,3.63
2023-03-13T00:37:47.846Z,3.30
2023-03-13T00:40:14.929Z,3.25
2023-03-13T00:42:41.656Z,3.13
2023-03-13T00:45:08.877Z,3.25
2023-03-13T00:47:35.620Z,3.20
2023-03-13T00:50:02.395Z,3.60
2023-03-13T00:52:29.248Z,3.03
2023-03-13T00:54:56.012Z,3.45
2023-03-13T00:57:22.808Z,3.28
2023-03-13T00:59:49.585Z,3.38
2023-03-13T01:02:16.443Z,3.90
2023-03-13T01:04:43.344Z,3.55
2023-03-13T01:07:10.059Z,3.08
2023-03-13T01:09:36.751Z,3.70
2023-03-13T01:12:03.674Z,3.40
2023-03-13T01:14:31.289Z,3.00
2023-03-13T01:16:58.168Z,3.33
2023-03-13T01:19:24.991Z,3.35
2023-03-13T01:21:51.809Z,3.20
2023-03-13T01:24:20.255Z,3.25
2023-03-13T01:26:47.835Z,3.10
2023-03-13T01:29:15.859Z,3.60
2023-03-13T01:31:42.808Z,3.20
2023-03-13T01:34:10.957Z,3.35
2023-03-13T01:36:38.135Z,3.60
2023-03-13T01:39:05.842Z,3.33
2023-03-13T01:41:32.861Z,3.58
2023-03-13T01:44:00.163Z,3.80
2023-03-13T01:46:32.784Z,3.40
2023-03-13T01:49:25.278Z,3.80
2023-03-13T01:52:10.703Z,3.77
2023-03-13T01:54:56.969Z,3.72
2023-03-13T01:57:42.779Z,3.75
2023-03-13T02:00:16.403Z,3.92
2023-03-13T02:02:49.017Z,4.00
2023-03-13T02:05:19.312Z,3.83
2023-03-13T02:07:57.357Z,4.00
2023-03-13T02:10:26.691Z,4.00
2023-03-13T02:12:57.712Z,4.05
2023-03-13T02:15:27.202Z,3.70
2023-03-13T02:17:55.025Z,3.88
2023-03-13T02:20:22.900Z,3.70
2023-03-13T02:23:02.795Z,3.97
2023-03-13T02:25:52.140Z,3.75
2023-03-13T02:28:33.906Z,3.17
2023-03-13T02:31:03.569Z,3.78
2023-03-13T02:33:34.551Z,3.42
2023-03-13T02:36:03.405Z,4.07
2023-03-13T02:38:33.415Z,3.85
2023-03-13T02:41:02.509Z,4.00
2023-03-13T02:43:35.207Z,3.53
2023-03-13T02:46:15.185Z,3.67
2023-03-13T02:48:51.231Z,3.47
2023-03-13T02:51:25.244Z,3.60
2023-03-13T02:53:55.766Z,3.30
2023-03-13T02:56:25.779Z,3.28
2023-03-13T02:58:53.595Z,3.90
2023-03-13T03:01:23.797Z,3.92
2023-03-13T03:03:51.906Z,4.00
2023-03-13T03:06:18.738Z,3.60
2023-03-13T03:08:46.612Z,3.53
2023-03-13T03:11:14.030Z,3.63
2023-03-13T03:13:42.754Z,3.55
2023-03-13T03:16:12.226Z,3.25
2023-03-13T03:18:39.358Z,3.28
2023-03-13T03:21:06.811Z,3.60
2023-03-13T03:23:38.104Z,3.60
2023-03-13T03:26:06.728Z,3.63
2023-03-13T03:28:34.187Z,3.50
2023-03-13T03:31:08.343Z,3.33
2023-03-13T03:33:37.558Z,3.60
2023-03-13T03:36:10.720Z,3.15
2023-03-13T03:38:39.774Z,3.28
2023-03-13T03:41:08.753Z,4.07
2023-03-13T03:43:36.012Z,3.55
2023-03-13T03:46:04.818Z,4.05
2023-03-13T03:48:32.069Z,3.40
2023-03-13T03:50:59.398Z,3.90
2023-03-13T03:53:28.198Z,3.75
2023-03-13T03:55:55.623Z,4.05
2023-03-13T03:58:22.442Z,3.60
2023-03-13T04:01:12.156Z,3.70
2023-03-13T04:03:39.268Z,4.07
2023-03-13T04:06:07.193Z,4.00
2023-03-13T04:08:34.072Z,3.78
2023-03-13T04:11:02.034Z,3.78
2023-03-13T04:13:32.106Z,3.85
2023-03-13T04:15:59.379Z,3.92
2023-03-13T04:18:26.206Z,3.60
2023-03-13T04:21:04.693Z,3.63
2023-03-13T04:23:37.878Z,3.50
2023-03-13T04:26:04.896Z,4.03
2023-03-13T04:28:31.872Z,3.75
2023-03-13T04:30:59.235Z,3.60
2023-03-13T04:33:40.981Z,3.92
2023-03-13T04:36:24.752Z,4.13
2023-03-13T04:39:10.834Z,3.58
2023-03-13T04:42:13.195Z,3.45
2023-03-13T04:44:57.988Z,3.45
2023-03-13T04:47:43.785Z,4.22
2023-03-13T04:50:37.048Z,3.50
2023-03-13T04:53:13.399Z,3.60
2023-03-13T04:55:51.317Z,3.65
2023-03-13T04:58:47.557Z,3.53
2023-03-13T05:01:40.838Z,3.30
2023-03-13T05:04:31.302Z,3.70
2023-03-13T05:07:15.944Z,3.65
2023-03-13T05:09:58.126Z,3.90
2023-03-13T05:12:43.525Z,3.35
2023-03-13T05:15:20.501Z,3.42
2023-03-13T05:18:12.984Z,3.50
2023-03-13T05:20:59.989Z,3.63
2023-03-13T05:23:35.359Z,3.30
2023-03-13T05:26:25.355Z,3.60
2023-03-13T05:29:18.049Z,3.72
2023-03-13T05:32:03.070Z,3.38
2023-03-13T05:34:43.833Z,3.40
2023-03-13T05:37:43.147Z,3.55
2023-03-13T05:40:30.070Z,3.33
2023-03-13T05:43:15.518Z,3.33
2023-03-13T05:46:08.622Z,3.55
2023-03-13T05:49:08.207Z,3.23
2023-03-13T05:52:04.110Z,3.72
2023-03-13T05:54:42.928Z,3.53
2023-03-13T05:57:24.562Z,3.33
2023-03-13T06:00:23.771Z,4.22
2023-03-13T06:03:22.671Z,4.07
2023-03-13T06:05:58.899Z,3.95
2023-03-13T06:08:43.576Z,3.90
2023-03-13T06:11:10.424Z,3.50
2023-03-13T06:13:37.684Z,3.80
2023-03-13T06:16:14.061Z,3.63
2023-03-13T06:18:45.516Z,4.03
2023-03-13T06:21:12.304Z,4.07
2023-03-13T06:23:39.175Z,3.97
2023-03-13T06:26:06.212Z,3.97
2023-03-13T06:28:32.985Z,4.20
2023-03-13T06:31:04.762Z,4.50
2023-03-13T06:33:32.262Z,3.88
2023-03-13T06:36:01.294Z,4.05
2023-03-13T06:38:30.130Z,3.60
2023-03-13T06:40:57.075Z,4.05
2023-03-13T06:43:23.976Z,3.58
2023-03-13T06:45:50.870Z,3.40
2023-03-13T06:48:18.251Z,3.92
2023-03-13T06:50:45.364Z,3.33
2023-03-13T06:53:17.805Z,3.53
2023-03-13T06:55:45.469Z,3.63
2023-03-13T06:58:25.366Z,3.60
2023-03-13T07:00:59.288Z,3.28
2023-03-13T07:03:26.280Z,2.92
2023-03-13T07:05:57.719Z,3.45
2023-03-13T07:08:25.734Z,3.63
2023-03-13T07:10:53.199Z,3.28
2023-03-13T07:13:21.862Z,3.80
2023-03-13T07:15:48.884Z,3.40
2023-03-13T07:18:16.225Z,3.15
2023-03-13T07:20:43.378Z,3.13
2023-03-13T07:23:10.246Z,3.13
2023-03-13T07:25:36.993Z,3.33
2023-03-13T07:28:03.790Z,3.60
2023-03-13T07:30:30.866Z,3.38
2023-03-13T07:32:58.867Z,3.08
2023-03-13T07:35:25.754Z,3.50
2023-03-13T07:37:52.662Z,2.90
2023-03-13T07:40:19.498Z,3.25
2023-03-13T07:42:46.452Z,3.58
2023-03-13T07:45:13.494Z,4.35
2023-03-13T07:47:40.229Z,3.55
2023-03-13T07:50:08.293Z,3.50
2023-03-13T07:52:35.158Z,3.60
2023-03-13T07:55:01.866Z,3.40
2023-03-13T07:57:28.872Z,3.63
2023-03-13T07:59:55.657Z,3.88
2023-03-13T08:02:22.516Z,3.28
2023-03-13T08:04:52.513Z,3.92
2023-03-13T08:07:19.269Z,3.45
2023-03-13T08:09:46.222Z,3.97
2023-03-13T08:12:13.017Z,3.03
2023-03-13T08:14:39.747Z,2.85
2023-03-13T08:17:06.607Z,2.88
2023-03-13T08:19:33.313Z,3.08
2023-03-13T08:22:00.014Z,3.67
2023-03-13T08:24:26.873Z,3.47
2023-03-13T08:26:56.444Z,3.17
2023-03-13T08:29:23.863Z,2.92
2023-03-13T08:31:52.707Z,2.92
2023-03-13T08:34:19.993Z,7.28
2023-03-13T08:36:47.499Z,3.05
2023-03-13T08:39:17.064Z,4.00
2023-03-13T08:41:44.479Z,2.42
2023-03-13T08:44:14.250Z,2.80
2023-03-13T08:46:41.214Z,5.75
2023-03-13T08:49:08.618Z,4.13
2023-03-13T08:51:36.474Z,2.20
2023-03-13T08:54:04.145Z,1.90
2023-03-13T08:56:31.883Z,3.25
2023-03-13T08:59:00.748Z,1.92
2023-03-13T09:01:33.201Z,2.08
2023-03-13T09:04:03.983Z,2.17
2023-03-13T09:06:33.481Z,1.85
2023-03-13T09:09:00.244Z,3.42
2023-03-13T09:11:27.392Z,2.10
2023-03-13T09:13:55.649Z,2.33
2023-03-13T09:16:24.242Z,1.80
2023-03-13T09:18:52.711Z,2.08
2023-03-13T09:21:25.524Z,2.00
2023-03-13T09:23:52.542Z,2.10
2023-03-13T09:26:22.748Z,1.77
2023-03-13T09:28:51.448Z,2.90
2023-03-13T09:31:21.242Z,2.10
2023-03-13T09:33:49.712Z,2.55
2023-03-13T09:36:19.288Z,3.00
2023-03-13T09:38:48.101Z,2.25
2023-03-13T09:41:17.613Z,2.70
2023-03-13T09:43:44.402Z,2.28
2023-03-13T09:46:39.165Z,2.05
2023-03-13T09:49:28.436Z,1.83
2023-03-13T09:52:05.918Z,1.55
2023-03-13T09:54:38.659Z,2.20
2023-03-13T09:57:17.203Z,2.15
2023-03-13T09:59:52.671Z,2.05
2023-03-13T10:02:30.692Z,2.10
2023-03-13T10:05:22.800Z,1.75
2023-03-13T10:07:50.715Z,1.90
2023-03-13T10:10:28.526Z,2.10
2023-03-13T10:13:04.170Z,1.80
2023-03-13T10:15:39.517Z,2.28
2023-03-13T10:18:15.819Z,1.80
2023-03-13T10:20:43.626Z,2.40
2023-03-13T10:23:34.704Z,2.13
2023-03-13T10:26:01.498Z,1.73
2023-03-13T10:28:28.507Z,2.03
2023-03-13T10:31:08.425Z,1.80
2023-03-13T10:36:10.810Z,1.80
2023-03-13T10:38:53.295Z,2.30
2023-03-13T10:41:30.989Z,2.20
2023-03-13T10:44:04.515Z,2.05
2023-03-13T10:46:34.152Z,2.47
2023-03-13T10:49:04.229Z,1.70
2023-03-13T10:51:37.614Z,1.80
2023-03-13T10:54:24.142Z,1.60
2023-03-13T10:56:55.930Z,1.98
2023-03-13T10:59:27.463Z,2.10
2023-03-13T11:02:00.600Z,2.40
2023-03-13T11:04:32.499Z,1.67
2023-03-13T11:07:31.383Z,1.92
2023-03-13T11:10:18.435Z,2.58
2023-03-13T11:12:53.445Z,1.85
2023-03-13T11:15:29.616Z,2.38
2023-03-13T11:18:06.638Z,1.70
2023-03-13T11:20:36.510Z,1.63
2023-03-13T11:26:35.714Z,1.70
2023-03-13T11:29:54.111Z,2.00
2023-03-13T11:32:31.257Z,1.60
2023-03-13T11:35:03.245Z,1.73
2023-03-13T11:37:33.430Z,2.10
2023-03-13T11:40:22.675Z,2.28
2023-03-13T11:43:17.766Z,1.73
2023-03-13T11:46:07.898Z,1.00
2023-03-13T11:48:46.887Z,2.03
2023-03-13T11:51:29.187Z,1.50
2023-03-13T11:54:17.766Z,1.92
2023-03-13T11:56:52.635Z,3.55
2023-03-13T11:59:19.364Z,3.50
2023-03-13T12:01:59.429Z,1.50
2023-03-13T12:04:39.989Z,1.90
2023-03-13T12:07:10.099Z,1.67
2023-03-13T12:09:46.105Z,2.00
2023-03-13T12:12:42.058Z,1.40
2023-03-13T12:15:22.090Z,2.00
2023-03-13T12:18:03.449Z,1.80
2023-03-13T12:20:41.353Z,2.40
2023-03-13T12:23:19.044Z,1.33
2023-03-13T12:26:00.452Z,1.77
2023-03-13T12:28:37.411Z,1.55
2023-03-13T12:31:25.605Z,1.58
2023-03-13T12:34:01.045Z,1.50
2023-03-13T12:36:37.238Z,1.52
2023-03-13T12:39:16.085Z,1.50
2023-03-13T12:41:47.391Z,1.67
2023-03-13T12:44:20.043Z,2.28
2023-03-13T12:46:54.369Z,2.33
2023-03-13T12:49:21.675Z,2.10
2023-03-13T12:52:18.752Z,1.40
2023-03-13T12:55:18.263Z,1.75
2023-03-13T12:58:15.045Z,4.43
2023-03-13T13:00:45.951Z,5.57
2023-03-13T13:03:22.331Z,3.22
2023-03-13T13:06:18.860Z,1.80
2023-03-13T13:09:06.657Z,3.60
2023-03-13T13:11:33.780Z,2.53
2023-03-13T13:14:16.018Z,2.60
2023-03-13T13:16:58.236Z,1.85
2023-03-13T13:19:25.096Z,1.55
2023-03-13T13:22:29.323Z,1.90
2023-03-13T13:25:00.994Z,1.77
2023-03-13T13:27:34.565Z,1.70
2023-03-13T13:30:21.307Z,1.60
2023-03-13T13:32:56.105Z,1.70
2023-03-13T13:35:34.832Z,1.60
2023-03-13T13:38:28.490Z,1.65
2023-03-13T13:41:26.425Z,1.60
2023-03-13T13:44:21.024Z,2.00
2023-03-13T13:46:47.941Z,1.70
2023-03-13T13:49:19.855Z,2.30
2023-03-13T13:52:01.767Z,1.90
2023-03-13T13:54:45.701Z,2.65
2023-03-13T13:57:18.014Z,2.55
2023-03-13T13:59:51.432Z,2.08
2023-03-13T14:02:30.707Z,2.17
2023-03-13T14:05:20.957Z,2.35
2023-03-13T14:07:57.276Z,2.10
2023-03-13T14:10:48.496Z,2.25
2023-03-13T14:13:20.729Z,1.70
2023-03-13T14:15:49.734Z,2.00
2023-03-13T14:18:16.499Z,1.77
2023-03-13T14:21:14.037Z,1.60
2023-03-13T14:23:46.045Z,2.60
2023-03-13T14:26:22.585Z,4.72
2023-03-13T14:28:56.669Z,1.95
2023-03-13T14:31:32.914Z,1.80
2023-03-13T14:34:06.015Z,2.05
2023-03-13T14:37:17.228Z,1.63
2023-03-13T14:39:46.009Z,1.90
2023-03-13T14:42:17.241Z,2.38
2023-03-13T14:44:47.364Z,2.03
2023-03-13T14:47:34.529Z,2.30
2023-03-13T14:50:05.099Z,2.20
2023-03-13T14:52:33.087Z,2.13
2023-03-13T14:55:07.860Z,1.98
2023-03-13T14:57:35.855Z,1.95
2023-03-13T15:00:30.845Z,2.30
2023-03-13T15:03:13.099Z,1.70
2023-03-13T15:05:39.893Z,2.40
2023-03-13T15:08:18.405Z,2.15
2023-03-13T15:10:46.114Z,2.55
2023-03-13T15:13:34.173Z,2.40
2023-03-13T15:16:02.905Z,2.60
2023-03-13T15:18:34.855Z,2.20
2023-03-13T15:21:24.157Z,2.70
2023-03-13T15:24:15.332Z,2.42
2023-03-13T15:26:42.153Z,2.40
2023-03-13T15:29:10.798Z,2.65
2023-03-13T15:31:38.268Z,2.75
2023-03-13T15:34:10.860Z,2.40
2023-03-13T15:36:40.729Z,2.65
2023-03-13T15:41:42.423Z,2.47
2023-03-13T15:44:09.199Z,3.15
2023-03-13T15:46:36.173Z,2.72
2023-03-13T15:49:03.664Z,2.60
2023-03-13T15:51:30.877Z,3.10
2023-03-13T15:53:57.654Z,4.50
2023-03-13T15:56:24.542Z,5.90
2023-03-13T15:58:51.848Z,5.97
2023-03-13T16:01:19.348Z,7.82
2023-03-13T16:03:46.287Z,4.22
2023-03-13T16:06:15.549Z,3.00
2023-03-13T16:08:42.723Z,2.88
2023-03-13T16:11:12.353Z,2.95
2023-03-13T16:13:39.102Z,2.60
2023-03-13T16:16:18.609Z,2.60
2023-03-13T16:18:45.436Z,3.63
2023-03-13T16:21:24.798Z,4.07
2023-03-13T16:23:52.243Z,2.70
2023-03-13T16:26:24.927Z,2.72
2023-03-13T16:28:52.985Z,2.50
2023-03-13T16:31:25.474Z,2.70
2023-03-13T16:33:54.189Z,2.60
2023-03-13T16:36:28.200Z,2.60
2023-03-13T16:38:55.159Z,2.50
2023-03-13T16:41:24.180Z,2.13
2023-03-13T16:43:51.047Z,2.50
2023-03-13T16:46:24.032Z,2.20
2023-03-13T16:48:51.576Z,2.28
2023-03-13T16:51:26.780Z,2.30
2023-03-13T16:53:55.999Z,2.40
2023-03-13T16:56:22.655Z,2.40
2023-03-13T16:58:49.474Z,4.60
2023-03-13T17:01:16.909Z,3.47
2023-03-13T17:03:44.630Z,3.13
2023-03-13T17:06:17.917Z,3.38
2023-03-13T17:08:44.872Z,3.20
2023-03-13T17:11:17.273Z,2.20
2023-03-13T17:13:47.413Z,2.40
2023-03-13T17:16:18.768Z,4.30
2023-03-13T17:18:48.752Z,2.97
2023-03-13T17:23:51.303Z,4.75
2023-03-13T17:26:21.415Z,6.15
2023-03-13T17:28:50.549Z,5.68
2023-03-13T17:31:18.549Z,3.87
2023-03-13T17:33:45.971Z,4.25
2023-03-13T17:36:17.065Z,3.42
2023-03-13T17:38:44.512Z,3.15
2023-03-13T17:41:14.173Z,5.00
2023-03-13T17:43:41.939Z,6.88
2023-03-13T17:46:15.944Z,5.20
2023-03-13T17:48:42.783Z,3.20
2023-03-13T17:51:19.579Z,3.17
2023-03-13T17:53:46.764Z,3.08
2023-03-13T17:56:15.912Z,3.67
2023-03-13T17:58:42.775Z,2.75
2023-03-13T18:01:11.992Z,2.50
2023-03-13T18:03:39.321Z,2.60
2023-03-13T18:06:06.389Z,3.00
2023-03-13T18:08:33.150Z,2.17
2023-03-13T18:10:59.848Z,2.47
2023-03-13T18:13:26.581Z,3.10
2023-03-13T18:15:53.401Z,2.63
2023-03-13T18:18:20.129Z,2.60
2023-03-13T18:20:47.409Z,2.40
2023-03-13T18:23:14.166Z,2.33
2023-03-13T18:25:40.917Z,2.00
2023-03-13T18:28:11.492Z,2.75
2023-03-13T18:30:39.677Z,2.22
2023-03-13T18:33:06.482Z,2.58
2023-03-13T18:35:33.436Z,2.50
2023-03-13T18:38:00.244Z,2.60
2023-03-13T18:40:28.886Z,2.85
2023-03-13T18:42:55.760Z,3.30
2023-03-13T18:45:26.905Z,2.75
2023-03-13T18:47:53.998Z,2.70
2023-03-13T18:50:30.749Z,2.50
2023-03-13T18:52:59.386Z,7.50
2023-03-13T18:55:29.990Z,2.58
2023-03-13T18:57:57.532Z,2.60
2023-03-13T19:00:29.937Z,2.45
2023-03-13T19:02:57.390Z,2.47
2023-03-13T19:05:24.510Z,2.70
2023-03-13T19:07:51.441Z,3.00
2023-03-13T19:10:27.956Z,2.20
2023-03-13T19:12:56.054Z,2.50
2023-03-13T19:15:25.958Z,2.90
2023-03-13T19:17:54.069Z,3.47
2023-03-13T19:20:22.826Z,3.28
2023-03-13T19:22:49.822Z,2.55
2023-03-13T19:25:17.476Z,2.92
2023-03-13T19:27:45.486Z,2.70
2023-03-13T19:30:20.700Z,2.85
2023-03-13T19:32:47.685Z,2.88
2023-03-13T19:35:18.618Z,3.00
2023-03-13T19:37:46.107Z,2.25
2023-03-13T19:40:23.967Z,2.10
2023-03-13T19:42:50.809Z,2.25
2023-03-13T19:45:19.708Z,2.22
2023-03-13T19:47:46.551Z,2.63
2023-03-13T19:50:20.041Z,2.80
2023-03-13T19:52:46.882Z,4.93
2023-03-13T19:55:14.173Z,2.10
2023-03-13T19:57:41.176Z,2.22
2023-03-13T20:00:14.070Z,1.88
2023-03-13T20:02:41.696Z,2.30
2023-03-13T20:05:10.245Z,1.80
2023-03-13T20:07:37.455Z,1.92
2023-03-13T20:10:05.457Z,2.22
2023-03-13T20:12:34.073Z,2.00
2023-03-13T20:15:00.865Z,1.70
2023-03-13T20:17:27.965Z,2.00
2023-03-13T20:19:54.815Z,1.80
2023-03-13T20:22:21.489Z,1.85
2023-03-13T20:24:48.276Z,1.42
2023-03-13T20:27:15.032Z,1.70
2023-03-13T20:29:41.977Z,1.65
2023-03-13T20:32:08.821Z,1.63
2023-03-13T20:34:35.850Z,1.73
2023-03-13T20:37:03.904Z,1.42
2023-03-13T20:39:30.964Z,1.58
2023-03-13T20:42:02.239Z,1.52
2023-03-13T20:44:29.751Z,1.58
2023-03-13T20:46:56.470Z,1.30
2023-03-13T20:49:23.247Z,1.67
2023-03-13T20:51:49.953Z,1.73
2023-03-13T20:54:16.709Z,1.58
2023-03-13T20:56:43.555Z,1.67
2023-03-13T20:59:10.283Z,1.63
2023-03-13T21:01:37.129Z,1.40
2023-03-13T21:04:04.274Z,1.40
2023-03-13T21:06:31.136Z,1.70
2023-03-13T21:08:58.128Z,1.15
2023-03-13T21:11:24.864Z,1.20
2023-03-13T21:13:51.658Z,1.63
2023-03-13T21:16:19.945Z,1.48
2023-03-13T21:18:46.999Z,1.90
2023-03-13T21:21:17.457Z,1.40
2023-03-13T21:23:45.906Z,1.67
2023-03-13T21:26:13.709Z,1.63
2023-03-13T21:28:40.821Z,1.45
2023-03-13T21:31:12.931Z,1.80
2023-03-13T21:33:41.272Z,1.35
2023-03-13T21:36:09.977Z,1.75
2023-03-13T21:38:36.844Z,1.63
2023-03-13T21:41:10.670Z,1.63
2023-03-13T21:43:38.693Z,1.52
2023-03-13T21:46:05.677Z,1.45
2023-03-13T21:48:32.451Z,1.60
2023-03-13T21:50:59.341Z,1.80
2023-03-13T21:53:26.260Z,1.48
2023-03-13T21:55:53.094Z,1.50
2023-03-13T21:58:19.839Z,1.85
2023-03-13T22:00:46.574Z,2.15
2023-03-13T22:03:13.600Z,1.95
2023-03-13T22:05:42.454Z,2.13
2023-03-13T22:08:09.911Z,1.92
2023-03-13T22:10:38.093Z,1.90
2023-03-13T22:13:06.938Z,1.70
2023-03-13T22:15:34.166Z,1.73
2023-03-13T22:18:00.923Z,1.70
2023-03-13T22:20:28.021Z,1.48
2023-03-13T22:22:54.905Z,1.77
2023-03-13T22:25:21.759Z,1.67
2023-03-13T22:27:48.537Z,1.60
2023-03-13T22:30:15.553Z,1.90
2023-03-13T22:32:42.398Z,1.65
2023-03-13T22:35:09.907Z,1.98
2023-03-13T22:37:36.624Z,2.00
2023-03-13T22:40:04.082Z,1.65
2023-03-13T22:42:30.836Z,2.08
2023-03-13T22:44:57.652Z,1.83
2023-03-13T22:47:25.923Z,1.40
2023-03-13T22:49:53.687Z,1.95
2023-03-13T22:52:22.183Z,1.90
2023-03-13T22:54:48.918Z,1.90
2023-03-13T22:57:15.620Z,1.70
2023-03-13T22:59:42.348Z,1.70
2023-03-13T23:02:09.235Z,1.67
2023-03-13T23:04:36.008Z,1.50
2023-03-13T23:07:02.747Z,1.75
2023-03-13T23:09:29.496Z,1.77
2023-03-13T23:11:56.218Z,1.85
2023-03-13T23:14:23.011Z,1.80
2023-03-13T23:16:49.993Z,1.80
2023-03-13T23:19:16.976Z,2.17
2023-03-13T23:21:43.769Z,1.83
2023-03-13T23:24:10.514Z,1.92
2023-03-13T23:26:37.339Z,2.00
2023-03-13T23:29:04.650Z,1.70
2023-03-13T23:31:32.045Z,1.65
2023-03-13T23:33:59.238Z,1.90
2023-03-13T23:36:26.813Z,1.95
2023-03-13T23:38:54.374Z,1.95
2023-03-13T23:41:21.797Z,1.52
2023-03-13T23:43:48.810Z,1.40
2023-03-13T23:46:25.449Z,1.50
2023-03-13T23:48:53.939Z,1.60
2023-03-13T23:51:20.650Z,1.50
2023-03-13T23:53:47.767Z,1.90
2023-03-13T23:56:14.748Z,1.58
2023-03-13T23:58:42.136Z,1.83
